Chandler, OK (74834)

3:38 PM CST on December 07, 2016 (GMT -0600)
Chandler Municipal | | Change Station

Elev 984 ft 35.72 °N, 96.82 °W | Updated 23 minutes ago

Overcast
Overcast
34 °F
Feels Like 34 °F
N
0
Wind Variable Wind from North

Today
High -- | Low -- °F
--% Chance of Precip.
Yesterday
High -- | Low -- °F
Precip. -- in
Pressure 30.22 in
Visibility 10.0 miles
Clouds Overcast 2000 ft
Dew Point 30 °F
Humidity 87%
Rainfall 0.00 in
Snow Depth Not available.
7:24 AM 5:13 PM
First Quarter, 56% visible
METAR KCQB 072115Z AUTO 00000KT 10SM OVC020 01/M01 A3022 RMK AO2
Pressure 30.22 in
Visibility 10.0 miles
Clouds Overcast 2000 ft
Dew Point 30 °F
Humidity 87%
Rainfall 0.00 in
Snow Depth Not available.
7:24 AM 5:13 PM
First Quarter, 56% visible
METAR KCQB 072115Z AUTO 00000KT 10SM OVC020 01/M01 A3022 RMK AO2

10-Day Weather Forecast

Almanac

Astronomy

Dec. 07, 2016 Rise Set
Actual Time
Civil Twilight
Nautical Twilight
Astronomical Twilight
Moon
Length of Visible Light
Length of Day
Tomorrow will be .
, % of the Moon is Illuminated

Today's Extremes

State Highs State Lows

Community

WunderPhotos

Upload Photos

1,956,181 photos uploaded!

WunderBlog® & News

Nearby

Air Quality

  Air Quality AQ Index Pollutant
Not available.

Snow Depth

Station Depth Elevation

Earthquake Activity

City Distance Mag. Time & Date
Minimum magnitude displayed is 2.5.

Coastal Water Temperatures

Place Temperature

Stations

Nearby Weather Stations

Station Location Temp. Windchill Dew Point Humidity Wind Precip. Elev Updated Type
                   

Watches & Warnings

There are currently no watches in effect.